createdAt,value
2023-03-23T15:57:57.738Z,27.35
2023-03-23T16:00:27.754Z,17.15
2023-03-23T16:02:59.605Z,11.82
2023-03-23T16:05:27.430Z,11.70
2023-03-23T16:07:54.642Z,12.20
2023-03-23T16:10:24.209Z,20.77
2023-03-23T16:12:51.389Z,18.92
2023-03-23T16:15:18.631Z,15.80
2023-03-23T16:17:48.371Z,16.40
2023-03-23T16:20:18.106Z,12.45
2023-03-23T16:22:45.861Z,12.75
2023-03-23T16:25:13.849Z,12.52
2023-03-23T16:27:42.295Z,12.80
2023-03-23T16:30:16.037Z,14.80
2023-03-23T16:32:46.179Z,14.25
2023-03-23T16:35:14.542Z,14.95
2023-03-23T16:37:51.976Z,17.30
2023-03-23T16:40:37.564Z,13.95
2023-03-23T16:43:08.890Z,15.27
2023-03-23T16:45:38.752Z,15.68
2023-03-23T16:48:06.448Z,16.77
2023-03-23T16:50:34.207Z,17.80
2023-03-23T16:53:01.694Z,14.35
2023-03-23T16:55:30.158Z,20.00
2023-03-23T16:58:12.854Z,15.70
2023-03-23T17:00:45.574Z,17.13
2023-03-23T17:03:13.435Z,18.20
2023-03-23T17:05:41.193Z,19.70
2023-03-23T17:08:08.526Z,15.57
2023-03-23T17:10:38.516Z,16.90
2023-03-23T17:13:08.950Z,19.35
2023-03-23T17:15:37.846Z,21.42
2023-03-23T17:18:06.010Z,16.55
2023-03-23T17:20:34.185Z,19.17
2023-03-23T17:23:01.695Z,18.00
2023-03-23T17:25:30.788Z,19.85
2023-03-23T17:28:05.465Z,16.90
2023-03-23T17:30:47.387Z,20.70
2023-03-23T17:33:14.637Z,16.17
2023-03-23T17:35:42.600Z,18.13
2023-03-23T17:38:11.094Z,26.85
2023-03-23T17:40:38.532Z,15.50
2023-03-23T17:43:06.831Z,15.35
2023-03-23T17:45:33.841Z,15.35
2023-03-23T17:48:01.393Z,20.23
2023-03-23T17:50:30.236Z,18.67
2023-03-23T17:52:57.972Z,21.73
2023-03-23T17:55:24.989Z,22.02
2023-03-23T17:57:51.942Z,17.88
2023-03-23T18:00:19.365Z,21.75
2023-03-23T18:02:46.528Z,19.58
2023-03-23T18:05:14.487Z,17.63
2023-03-23T18:07:44.365Z,21.27
2023-03-23T18:10:13.109Z,21.23
2023-03-23T18:12:41.703Z,20.10
2023-03-23T18:15:10.917Z,18.40
2023-03-23T18:17:38.537Z,20.65
2023-03-23T18:20:07.357Z,18.58
2023-03-23T18:22:34.409Z,25.23
2023-03-23T18:25:02.755Z,18.38
2023-03-23T18:27:29.913Z,23.80
2023-03-23T18:30:01.266Z,22.63
2023-03-23T18:32:28.782Z,25.33
2023-03-23T18:34:56.235Z,22.30
2023-03-23T18:37:23.471Z,21.58
2023-03-23T18:39:50.760Z,23.98
2023-03-23T18:42:17.764Z,19.33
2023-03-23T18:44:44.696Z,20.55
2023-03-23T18:47:11.831Z,20.70
2023-03-23T18:49:38.861Z,18.38
2023-03-23T18:52:16.396Z,17.65
2023-03-23T18:54:47.582Z,19.77
2023-03-23T18:57:16.199Z,19.33
2023-03-23T18:59:43.266Z,18.23
2023-03-23T19:02:12.459Z,17.38
2023-03-23T19:07:23.291Z,17.35
2023-03-23T19:09:54.265Z,18.20
2023-03-23T19:12:29.154Z,18.45
2023-03-23T19:15:09.982Z,22.27
2023-03-23T19:17:39.910Z,19.70
2023-03-23T19:20:14.487Z,19.80
2023-03-23T19:22:47.536Z,18.13
2023-03-23T19:25:26.053Z,20.35
2023-03-23T19:28:45.420Z,19.85
2023-03-23T19:30:48.116Z,18.30
2023-03-23T19:33:15.815Z,21.63
2023-03-23T19:36:05.726Z,18.92
2023-03-23T19:38:38.164Z,20.00
2023-03-23T19:41:06.879Z,23.88
2023-03-23T19:43:34.201Z,21.02
2023-03-23T19:46:01.810Z,21.70
2023-03-23T19:48:31.137Z,21.73
2023-03-23T19:50:58.692Z,20.25
2023-03-23T19:53:26.761Z,25.65
2023-03-23T19:55:53.763Z,28.67
2023-03-23T19:58:21.270Z,24.33
2023-03-23T20:00:48.718Z,26.52
2023-03-23T20:03:16.932Z,25.92
2023-03-23T20:05:49.377Z,25.95
2023-03-23T20:08:16.771Z,22.95
2023-03-23T20:10:43.816Z,22.05
2023-03-23T20:13:11.595Z,25.65
2023-03-23T20:15:38.569Z,22.75
2023-03-23T20:18:07.309Z,23.33
2023-03-23T20:20:36.727Z,25.00
2023-03-23T20:23:13.046Z,25.23
2023-03-23T20:25:41.213Z,26.63
2023-03-23T20:28:08.218Z,22.38
2023-03-23T20:30:35.741Z,28.48
2023-03-23T20:33:09.449Z,23.63
2023-03-23T20:35:36.739Z,25.77
2023-03-23T20:38:03.616Z,23.08
2023-03-23T20:40:30.764Z,24.33
2023-03-23T20:42:57.861Z,24.02
2023-03-23T20:45:27.327Z,25.88
2023-03-23T20:47:55.414Z,23.67
2023-03-23T20:50:22.967Z,26.35
2023-03-23T20:52:49.935Z,24.67
2023-03-23T20:55:16.932Z,23.83
2023-03-23T20:57:44.896Z,23.95
2023-03-23T21:00:15.561Z,29.00
2023-03-23T21:02:42.670Z,27.25
2023-03-23T21:05:16.435Z,25.20
2023-03-23T21:07:49.240Z,25.27
2023-03-23T21:10:19.323Z,25.73
2023-03-23T21:12:58.614Z,28.35
2023-03-23T21:15:26.350Z,27.05
2023-03-23T21:17:53.262Z,27.33
2023-03-23T21:20:21.432Z,25.95
2023-03-23T21:22:48.710Z,26.17
2023-03-23T21:25:16.395Z,26.35
2023-03-23T21:27:43.257Z,28.83
2023-03-23T21:30:11.819Z,27.48
2023-03-23T21:32:38.706Z,31.55
2023-03-23T21:35:06.498Z,34.38
2023-03-23T21:37:33.485Z,27.27
2023-03-23T21:40:00.503Z,30.15
2023-03-23T21:42:32.854Z,26.63
2023-03-23T21:45:02.791Z,32.47
2023-03-23T21:47:31.752Z,32.15
2023-03-23T21:49:59.570Z,36.03
2023-03-23T21:52:26.784Z,29.13
2023-03-23T21:55:00.461Z,34.63
2023-03-23T21:57:31.128Z,31.20
2023-03-23T21:59:57.994Z,35.65
2023-03-23T22:02:25.121Z,32.78
2023-03-23T22:04:57.428Z,28.35
2023-03-23T22:07:25.106Z,28.70
2023-03-23T22:09:52.864Z,30.60
2023-03-23T22:12:22.897Z,31.20
2023-03-23T22:14:50.273Z,31.13
2023-03-23T22:17:17.580Z,31.00
2023-03-23T22:19:44.577Z,28.40
2023-03-23T22:22:12.902Z,28.40
2023-03-23T22:24:39.865Z,26.73
2023-03-23T22:27:07.136Z,30.38
2023-03-23T22:29:33.998Z,30.60
2023-03-23T22:32:01.334Z,27.27
2023-03-23T22:34:28.258Z,26.23
2023-03-23T22:36:56.402Z,26.38
2023-03-23T22:39:30.189Z,31.55
2023-03-23T22:41:57.390Z,28.05
2023-03-23T22:44:24.562Z,26.80
2023-03-23T22:46:51.759Z,31.95
2023-03-23T22:49:18.869Z,29.58
2023-03-23T22:51:47.076Z,29.02
2023-03-23T22:54:14.020Z,31.65
2023-03-23T22:56:41.268Z,27.27
2023-03-23T22:59:08.764Z,36.03
2023-03-23T23:01:36.282Z,37.72
2023-03-23T23:04:04.312Z,39.72
2023-03-23T23:06:31.654Z,36.65
2023-03-23T23:09:01.027Z,36.78
2023-03-23T23:11:28.290Z,34.70
2023-03-23T23:13:55.397Z,35.67
2023-03-23T23:16:22.837Z,26.95
2023-03-23T23:18:50.201Z,27.67
2023-03-23T23:21:20.586Z,29.98
2023-03-23T23:23:48.199Z,31.40
2023-03-23T23:26:16.683Z,33.10
2023-03-23T23:28:44.413Z,29.27
2023-03-23T23:31:29.272Z,30.35
2023-03-23T23:33:58.282Z,30.23
2023-03-23T23:36:30.323Z,31.83
2023-03-23T23:39:02.338Z,29.55
2023-03-23T23:41:30.834Z,31.85
2023-03-23T23:43:58.369Z,31.75
2023-03-23T23:46:26.788Z,31.98
2023-03-23T23:48:53.708Z,30.90
2023-03-23T23:51:20.991Z,34.72
2023-03-23T23:53:55.565Z,35.15
2023-03-23T23:56:22.651Z,32.70
2023-03-23T23:58:49.544Z,34.42
